Highland Township, Michigan
Current Conditions -  °F | °C
As of 10:53 AM on Thursday 18 Dec 2014 (Local Time) from KPTK Reporting Station
Haze Haze  
Wind Chill: -5°   Ceiling: 800
Heat Index: -1°   Visibility: 3mi
Dew Point: -3°   Wind: 8mph
Humidity: 88%   Direction: 280°W
Pressure: 30.18"   Gusts: NA
Location:  42.6632°N, 83.6457°W
Report Text: KPTK 181553Z 28007KT 3SM BR OVC008 M01/M03 A3018 RMK AO2 CIG 005V010 SLP233 I1000 T10111028 $
Loading
Personal Weather Stations






























Interactive Weather Map New forecast layout! Learn more

10-Day Weather Forecast

Advertisements
Track Severe Weather on mobile